sensor_id;sensor_type;location;lat;lon;timestamp;temperature;humidity
4431;DHT22;2228;48.140;11.488;2023-02-01T00:01:22;4.20;1.00
4431;DHT22;2228;48.140;11.488;2023-02-01T00:03:50;4.20;1.00
4431;DHT22;2228;48.140;11.488;2023-02-01T00:06:17;4.30;1.00
4431;DHT22;2228;48.140;11.488;2023-02-01T00:08:44;4.30;1.00
4431;DHT22;2228;48.140;11.488;2023-02-01T00:11:13;4.50;1.00
4431;DHT22;2228;48.140;11.488;2023-02-01T00:13:41;4.50;1.00
4431;DHT22;2228;48.140;11.488;2023-02-01T00:16:09;4.40;1.00
4431;DHT22;2228;48.140;11.488;2023-02-01T00:18:38;4.40;1.00
4431;DHT22;2228;48.140;11.488;2023-02-01T00:21:05;4.50;1.00
4431;DHT22;2228;48.140;11.488;2023-02-01T00:23:33;4.40;1.00
4431;DHT22;2228;48.140;11.488;2023-02-01T00:26:00;4.50;1.00
4431;DHT22;2228;48.140;11.488;2023-02-01T00:28:29;4.40;1.00
4431;DHT22;2228;48.140;11.488;2023-02-01T00:30:57;4.30;1.00
4431;DHT22;2228;48.140;11.488;2023-02-01T00:33:24;4.30;1.00
4431;DHT22;2228;48.140;11.488;2023-02-01T00:35:51;4.30;1.00
4431;DHT22;2228;48.140;11.488;2023-02-01T00:38:18;4.30;1.00
4431;DHT22;2228;48.140;11.488;2023-02-01T00:40:48;4.20;1.00
4431;DHT22;2228;48.140;11.488;2023-02-01T00:43:15;4.10;1.00
4431;DHT22;2228;48.140;11.488;2023-02-01T00:45:45;4.10;1.00
4431;DHT22;2228;48.140;11.488;2023-02-01T00:48:12;3.80;7.00
4431;DHT22;2228;48.140;11.488;2023-02-01T00:50:41;4.00;1.00
4431;DHT22;2228;48.140;11.488;2023-02-01T00:53:08;3.80;44.70
4431;DHT22;2228;48.140;11.488;2023-02-01T00:55:35;3.70;71.60
4431;DHT22;2228;48.140;11.488;2023-02-01T00:58:03;3.50;99.90
4431;DHT22;2228;48.140;11.488;2023-02-01T01:00:31;3.40;99.90
4431;DHT22;2228;48.140;11.488;2023-02-01T01:03:35;3.40;99.90
4431;DHT22;2228;48.140;11.488;2023-02-01T01:06:05;3.30;99.90
4431;DHT22;2228;48.140;11.488;2023-02-01T01:08:35;3.30;99.90
4431;DHT22;2228;48.140;11.488;2023-02-01T01:11:06;3.30;99.90
4431;DHT22;2228;48.140;11.488;2023-02-01T01:13:34;3.20;99.90
4431;DHT22;2228;48.140;11.488;2023-02-01T01:16:02;3.10;99.90
4431;DHT22;2228;48.140;11.488;2023-02-01T01:18:30;3.20;99.90
4431;DHT22;2228;48.140;11.488;2023-02-01T01:20:59;3.20;99.90
4431;DHT22;2228;48.140;11.488;2023-02-01T01:23:27;3.30;99.90
4431;DHT22;2228;48.140;11.488;2023-02-01T01:25:55;3.30;99.90
4431;DHT22;2228;48.140;11.488;2023-02-01T01:28:22;3.20;99.90
4431;DHT22;2228;48.140;11.488;2023-02-01T01:30:49;3.20;99.90
4431;DHT22;2228;48.140;11.488;2023-02-01T01:33:17;3.20;99.90
4431;DHT22;2228;48.140;11.488;2023-02-01T01:35:45;3.20;99.90
4431;DHT22;2228;48.140;11.488;2023-02-01T01:38:15;3.10;99.90
4431;DHT22;2228;48.140;11.488;2023-02-01T01:40:45;3.20;99.90
4431;DHT22;2228;48.140;11.488;2023-02-01T01:46:03;3.20;99.90
4431;DHT22;2228;48.140;11.488;2023-02-01T01:48:31;3.20;99.90
4431;DHT22;2228;48.140;11.488;2023-02-01T01:51:01;3.20;1.00
4431;DHT22;2228;48.140;11.488;2023-02-01T01:53:35;3.20;1.00
4431;DHT22;2228;48.140;11.488;2023-02-01T01:56:05;3.20;1.00
4431;DHT22;2228;48.140;11.488;2023-02-01T01:58:34;3.20;1.00
4431;DHT22;2228;48.140;11.488;2023-02-01T02:01:02;3.20;1.00
4431;DHT22;2228;48.140;11.488;2023-02-01T02:03:35;3.10;1.00
4431;DHT22;2228;48.140;11.488;2023-02-01T02:06:14;3.10;1.00
4431;DHT22;2228;48.140;11.488;2023-02-01T02:08:45;3.00;1.00
4431;DHT22;2228;48.140;11.488;2023-02-01T02:11:16;3.10;1.00
4431;DHT22;2228;48.140;11.488;2023-02-01T02:13:48;3.10;1.00
4431;DHT22;2228;48.140;11.488;2023-02-01T02:34:57;3.30;1.00
4431;DHT22;2228;48.140;11.488;2023-02-01T02:37:34;3.40;99.90
4431;DHT22;2228;48.140;11.488;2023-02-01T02:40:14;3.30;1.00
4431;DHT22;2228;48.140;11.488;2023-02-01T02:42:49;3.40;1.00
4431;DHT22;2228;48.140;11.488;2023-02-01T02:45:43;3.20;1.00
4431;DHT22;2228;48.140;11.488;2023-02-01T02:48:34;3.30;1.00
4431;DHT22;2228;48.140;11.488;2023-02-01T02:51:09;3.50;99.90
4431;DHT22;2228;48.140;11.488;2023-02-01T02:53:58;3.40;1.00
4431;DHT22;2228;48.140;11.488;2023-02-01T02:56:44;3.30;99.90
4431;DHT22;2228;48.140;11.488;2023-02-01T02:59:30;3.40;99.90
4431;DHT22;2228;48.140;11.488;2023-02-01T03:02:15;3.50;99.90
4431;DHT22;2228;48.140;11.488;2023-02-01T03:05:00;3.50;99.90
4431;DHT22;2228;48.140;11.488;2023-02-01T03:07:56;3.30;99.90
4431;DHT22;2228;48.140;11.488;2023-02-01T03:10:38;3.40;99.90
4431;DHT22;2228;48.140;11.488;2023-02-01T03:13:15;3.50;99.90
4431;DHT22;2228;48.140;11.488;2023-02-01T03:15:53;3.60;99.90
4431;DHT22;2228;48.140;11.488;2023-02-01T03:18:28;3.70;99.90
4431;DHT22;2228;48.140;11.488;2023-02-01T03:21:00;3.80;99.90
4431;DHT22;2228;48.140;11.488;2023-02-01T03:23:35;3.80;99.90
4431;DHT22;2228;48.140;11.488;2023-02-01T03:26:06;3.70;99.90
4431;DHT22;2228;48.140;11.488;2023-02-01T03:28:37;3.80;99.90
4431;DHT22;2228;48.140;11.488;2023-02-01T03:31:06;3.80;99.90
4431;DHT22;2228;48.140;11.488;2023-02-01T03:33:34;3.90;99.90
4431;DHT22;2228;48.140;11.488;2023-02-01T03:36:08;3.80;99.90
4431;DHT22;2228;48.140;11.488;2023-02-01T03:38:46;3.80;99.90
4431;DHT22;2228;48.140;11.488;2023-02-01T03:41:20;3.90;99.90
4431;DHT22;2228;48.140;11.488;2023-02-01T03:43:54;3.90;99.90
4431;DHT22;2228;48.140;11.488;2023-02-01T03:46:29;3.90;99.90
4431;DHT22;2228;48.140;11.488;2023-02-01T03:49:09;3.90;99.90
4431;DHT22;2228;48.140;11.488;2023-02-01T03:51:40;3.90;99.90
4431;DHT22;2228;48.140;11.488;2023-02-01T03:54:12;3.90;99.90
4431;DHT22;2228;48.140;11.488;2023-02-01T03:56:43;3.80;99.90
4431;DHT22;2228;48.140;11.488;2023-02-01T03:59:12;3.80;99.90
4431;DHT22;2228;48.140;11.488;2023-02-01T04:01:40;3.80;99.90
4431;DHT22;2228;48.140;11.488;2023-02-01T04:04:09;3.90;99.90
4431;DHT22;2228;48.140;11.488;2023-02-01T04:06:45;3.90;99.90
4431;DHT22;2228;48.140;11.488;2023-02-01T04:09:14;3.80;99.90
4431;DHT22;2228;48.140;11.488;2023-02-01T04:11:44;3.80;99.90
4431;DHT22;2228;48.140;11.488;2023-02-01T04:14:12;3.70;99.90
4431;DHT22;2228;48.140;11.488;2023-02-01T04:16:40;3.90;99.90
4431;DHT22;2228;48.140;11.488;2023-02-01T04:19:08;3.90;99.90
4431;DHT22;2228;48.140;11.488;2023-02-01T04:21:35;3.90;99.90
4431;DHT22;2228;48.140;11.488;2023-02-01T04:24:04;3.90;99.90
4431;DHT22;2228;48.140;11.488;2023-02-01T04:26:34;3.90;99.90
4431;DHT22;2228;48.140;11.488;2023-02-01T04:29:01;3.90;99.90
4431;DHT22;2228;48.140;11.488;2023-02-01T04:31:28;3.80;99.90
4431;DHT22;2228;48.140;11.488;2023-02-01T04:33:57;3.90;99.90
4431;DHT22;2228;48.140;11.488;2023-02-01T04:36:27;3.80;99.90
4431;DHT22;2228;48.140;11.488;2023-02-01T04:38:56;3.80;99.90
4431;DHT22;2228;48.140;11.488;2023-02-01T04:41:24;3.80;99.90
4431;DHT22;2228;48.140;11.488;2023-02-01T04:44:02;3.70;99.90
4431;DHT22;2228;48.140;11.488;2023-02-01T04:46:33;3.80;99.90
4431;DHT22;2228;48.140;11.488;2023-02-01T04:49:01;3.80;99.90
4431;DHT22;2228;48.140;11.488;2023-02-01T04:51:28;3.80;99.90
4431;DHT22;2228;48.140;11.488;2023-02-01T04:53:55;3.80;99.90
4431;DHT22;2228;48.140;11.488;2023-02-01T04:56:23;3.90;99.90
4431;DHT22;2228;48.140;11.488;2023-02-01T04:58:50;3.90;99.90
4431;DHT22;2228;48.140;11.488;2023-02-01T05:01:19;3.80;99.90
4431;DHT22;2228;48.140;11.488;2023-02-01T05:03:48;3.80;99.90
4431;DHT22;2228;48.140;11.488;2023-02-01T05:06:15;3.70;99.90
4431;DHT22;2228;48.140;11.488;2023-02-01T05:08:43;3.80;99.90
4431;DHT22;2228;48.140;11.488;2023-02-01T05:11:10;3.80;94.20
4431;DHT22;2228;48.140;11.488;2023-02-01T05:13:58;3.80;99.90
4431;DHT22;2228;48.140;11.488;2023-02-01T05:16:26;3.90;95.80
4431;DHT22;2228;48.140;11.488;2023-02-01T05:18:54;3.90;94.40
4431;DHT22;2228;48.140;11.488;2023-02-01T05:21:21;3.90;90.90
4431;DHT22;2228;48.140;11.488;2023-02-01T05:23:49;3.90;77.20
4431;DHT22;2228;48.140;11.488;2023-02-01T05:26:33;3.90;93.10
4431;DHT22;2228;48.140;11.488;2023-02-01T05:29:00;3.80;82.40
4431;DHT22;2228;48.140;11.488;2023-02-01T05:31:29;3.80;99.90
4431;DHT22;2228;48.140;11.488;2023-02-01T05:33:56;3.80;94.70
4431;DHT22;2228;48.140;11.488;2023-02-01T05:36:23;3.90;61.60
4431;DHT22;2228;48.140;11.488;2023-02-01T05:38:50;3.90;67.60
4431;DHT22;2228;48.140;11.488;2023-02-01T05:41:17;3.90;57.80
4431;DHT22;2228;48.140;11.488;2023-02-01T05:43:44;3.80;80.40
4431;DHT22;2228;48.140;11.488;2023-02-01T05:46:11;3.90;77.90
4431;DHT22;2228;48.140;11.488;2023-02-01T05:48:40;3.80;94.20
4431;DHT22;2228;48.140;11.488;2023-02-01T05:51:07;3.90;72.80
4431;DHT22;2228;48.140;11.488;2023-02-01T05:53:35;3.80;89.80
4431;DHT22;2228;48.140;11.488;2023-02-01T05:56:02;3.90;73.80
4431;DHT22;2228;48.140;11.488;2023-02-01T05:58:29;3.80;78.30
4431;DHT22;2228;48.140;11.488;2023-02-01T06:00:58;3.90;67.10
4431;DHT22;2228;48.140;11.488;2023-02-01T06:03:28;3.80;87.40
4431;DHT22;2228;48.140;11.488;2023-02-01T06:05:56;3.90;83.30
4431;DHT22;2228;48.140;11.488;2023-02-01T06:08:23;3.90;57.20
4431;DHT22;2228;48.140;11.488;2023-02-01T06:10:51;3.90;79.10
4431;DHT22;2228;48.140;11.488;2023-02-01T06:13:23;3.90;91.30
4431;DHT22;2228;48.140;11.488;2023-02-01T06:15:50;3.90;70.30
4431;DHT22;2228;48.140;11.488;2023-02-01T06:18:17;3.80;81.90
4431;DHT22;2228;48.140;11.488;2023-02-01T06:20:44;3.90;72.30
4431;DHT22;2228;48.140;11.488;2023-02-01T06:23:13;3.90;74.40
4431;DHT22;2228;48.140;11.488;2023-02-01T06:25:40;3.90;88.90
4431;DHT22;2228;48.140;11.488;2023-02-01T06:28:07;3.90;94.30
4431;DHT22;2228;48.140;11.488;2023-02-01T06:30:34;3.90;79.30
4431;DHT22;2228;48.140;11.488;2023-02-01T06:33:01;3.90;99.90
4431;DHT22;2228;48.140;11.488;2023-02-01T06:35:28;3.90;68.90
4431;DHT22;2228;48.140;11.488;2023-02-01T06:37:55;3.90;80.00
4431;DHT22;2228;48.140;11.488;2023-02-01T06:40:25;3.90;79.90
4431;DHT22;2228;48.140;11.488;2023-02-01T06:42:52;4.00;58.70
4431;DHT22;2228;48.140;11.488;2023-02-01T06:45:19;3.90;78.50
4431;DHT22;2228;48.140;11.488;2023-02-01T06:47:46;4.00;57.20
4431;DHT22;2228;48.140;11.488;2023-02-01T06:50:13;3.90;88.50
4431;DHT22;2228;48.140;11.488;2023-02-01T06:52:40;4.00;44.90
4431;DHT22;2228;48.140;11.488;2023-02-01T06:55:07;4.00;43.50
4431;DHT22;2228;48.140;11.488;2023-02-01T06:57:35;4.00;42.70
4431;DHT22;2228;48.140;11.488;2023-02-01T07:00:03;4.00;41.90
4431;DHT22;2228;48.140;11.488;2023-02-01T07:02:31;4.00;48.60
4431;DHT22;2228;48.140;11.488;2023-02-01T07:04:58;4.10;55.40
4431;DHT22;2228;48.140;11.488;2023-02-01T07:07:25;4.00;47.00
4431;DHT22;2228;48.140;11.488;2023-02-01T07:09:52;3.90;74.20
4431;DHT22;2228;48.140;11.488;2023-02-01T07:12:19;4.00;67.50
4431;DHT22;2228;48.140;11.488;2023-02-01T07:14:47;4.10;60.60
4431;DHT22;2228;48.140;11.488;2023-02-01T07:17:16;4.10;53.00
4431;DHT22;2228;48.140;11.488;2023-02-01T07:19:43;4.10;45.80
4431;DHT22;2228;48.140;11.488;2023-02-01T07:22:10;4.00;54.30
4431;DHT22;2228;48.140;11.488;2023-02-01T07:24:37;4.00;67.50
4431;DHT22;2228;48.140;11.488;2023-02-01T07:27:04;4.00;43.40
4431;DHT22;2228;48.140;11.488;2023-02-01T07:29:31;4.10;15.90
4431;DHT22;2228;48.140;11.488;2023-02-01T07:32:00;4.10;12.60
4431;DHT22;2228;48.140;11.488;2023-02-01T07:34:28;4.10;34.80
4431;DHT22;2228;48.140;11.488;2023-02-01T07:36:56;4.30;1.00
4431;DHT22;2228;48.140;11.488;2023-02-01T07:39:23;4.10;28.20
4431;DHT22;2228;48.140;11.488;2023-02-01T07:41:49;4.10;24.70
4431;DHT22;2228;48.140;11.488;2023-02-01T07:44:17;4.20;11.80
4431;DHT22;2228;48.140;11.488;2023-02-01T07:46:48;4.20;6.10
4431;DHT22;2228;48.140;11.488;2023-02-01T07:49:16;4.30;4.50
4431;DHT22;2228;48.140;11.488;2023-02-01T07:51:43;4.30;1.00
4431;DHT22;2228;48.140;11.488;2023-02-01T07:54:10;4.40;1.00
4431;DHT22;2228;48.140;11.488;2023-02-01T07:56:37;4.40;1.00
4431;DHT22;2228;48.140;11.488;2023-02-01T07:59:04;4.30;1.00
4431;DHT22;2228;48.140;11.488;2023-02-01T08:01:32;4.40;1.00
4431;DHT22;2228;48.140;11.488;2023-02-01T08:04:00;4.50;1.00
4431;DHT22;2228;48.140;11.488;2023-02-01T08:06:30;4.50;1.00
4431;DHT22;2228;48.140;11.488;2023-02-01T08:08:58;4.40;1.00
4431;DHT22;2228;48.140;11.488;2023-02-01T08:11:26;4.50;1.00
4431;DHT22;2228;48.140;11.488;2023-02-01T08:13:53;4.50;1.00
4431;DHT22;2228;48.140;11.488;2023-02-01T08:16:21;4.60;1.00
4431;DHT22;2228;48.140;11.488;2023-02-01T08:18:48;4.60;1.00
4431;DHT22;2228;48.140;11.488;2023-02-01T08:21:18;4.60;1.00
4431;DHT22;2228;48.140;11.488;2023-02-01T08:23:47;4.70;1.00
4431;DHT22;2228;48.140;11.488;2023-02-01T08:26:16;4.70;1.00
4431;DHT22;2228;48.140;11.488;2023-02-01T08:28:45;4.70;1.00
4431;DHT22;2228;48.140;11.488;2023-02-01T08:31:15;4.80;1.00
4431;DHT22;2228;48.140;11.488;2023-02-01T08:33:44;4.80;1.00
4431;DHT22;2228;48.140;11.488;2023-02-01T08:36:11;4.80;1.00
4431;DHT22;2228;48.140;11.488;2023-02-01T08:38:39;4.80;1.00
4431;DHT22;2228;48.140;11.488;2023-02-01T08:41:09;4.90;1.00
4431;DHT22;2228;48.140;11.488;2023-02-01T08:43:37;5.00;1.00
4431;DHT22;2228;48.140;11.488;2023-02-01T08:46:05;5.00;1.00
4431;DHT22;2228;48.140;11.488;2023-02-01T08:48:32;5.00;1.00
4431;DHT22;2228;48.140;11.488;2023-02-01T08:51:01;5.10;1.00
4431;DHT22;2228;48.140;11.488;2023-02-01T08:53:29;5.10;1.00
4431;DHT22;2228;48.140;11.488;2023-02-01T08:55:56;5.10;1.00
4431;DHT22;2228;48.140;11.488;2023-02-01T08:58:24;5.20;1.00
4431;DHT22;2228;48.140;11.488;2023-02-01T09:00:51;5.20;1.00
4431;DHT22;2228;48.140;11.488;2023-02-01T09:03:19;5.20;1.00
4431;DHT22;2228;48.140;11.488;2023-02-01T09:05:46;5.10;1.00
4431;DHT22;2228;48.140;11.488;2023-02-01T09:08:13;5.30;1.00
4431;DHT22;2228;48.140;11.488;2023-02-01T09:10:41;5.20;1.00
4431;DHT22;2228;48.140;11.488;2023-02-01T09:13:08;5.20;1.00
4431;DHT22;2228;48.140;11.488;2023-02-01T09:15:38;5.30;1.00
4431;DHT22;2228;48.140;11.488;2023-02-01T09:18:05;5.50;1.00
4431;DHT22;2228;48.140;11.488;2023-02-01T09:20:32;5.40;1.00
4431;DHT22;2228;48.140;11.488;2023-02-01T09:22:59;5.40;1.00
4431;DHT22;2228;48.140;11.488;2023-02-01T09:25:27;5.40;1.00
4431;DHT22;2228;48.140;11.488;2023-02-01T09:27:54;5.50;1.00
4431;DHT22;2228;48.140;11.488;2023-02-01T09:30:21;5.40;1.00
4431;DHT22;2228;48.140;11.488;2023-02-01T09:32:49;5.40;1.00
4431;DHT22;2228;48.140;11.488;2023-02-01T09:35:16;5.50;1.00
4431;DHT22;2228;48.140;11.488;2023-02-01T09:37:43;5.60;1.00
4431;DHT22;2228;48.140;11.488;2023-02-01T09:40:13;5.70;1.00
4431;DHT22;2228;48.140;11.488;2023-02-01T09:43:04;5.70;1.00
4431;DHT22;2228;48.140;11.488;2023-02-01T09:45:38;5.80;1.00
4431;DHT22;2228;48.140;11.488;2023-02-01T09:48:13;5.80;1.00
4431;DHT22;2228;48.140;11.488;2023-02-01T09:50:47;5.80;1.00
4431;DHT22;2228;48.140;11.488;2023-02-01T09:53:18;5.90;1.00
4431;DHT22;2228;48.140;11.488;2023-02-01T09:55:50;5.80;1.00
4431;DHT22;2228;48.140;11.488;2023-02-01T09:58:21;5.90;1.00
4431;DHT22;2228;48.140;11.488;2023-02-01T10:00:53;5.90;1.00
4431;DHT22;2228;48.140;11.488;2023-02-01T10:03:24;5.80;1.00
4431;DHT22;2228;48.140;11.488;2023-02-01T10:06:24;5.70;1.00
4431;DHT22;2228;48.140;11.488;2023-02-01T10:09:17;5.70;1.00
4431;DHT22;2228;48.140;11.488;2023-02-01T10:11:54;5.50;1.00
4431;DHT22;2228;48.140;11.488;2023-02-01T10:14:37;5.50;1.00
4431;DHT22;2228;48.140;11.488;2023-02-01T10:17:16;5.50;1.00
4431;DHT22;2228;48.140;11.488;2023-02-01T10:19:56;5.50;1.00
4431;DHT22;2228;48.140;11.488;2023-02-01T10:22:36;5.60;1.00
4431;DHT22;2228;48.140;11.488;2023-02-01T10:25:09;5.60;1.00
4431;DHT22;2228;48.140;11.488;2023-02-01T10:27:39;5.60;1.00
4431;DHT22;2228;48.140;11.488;2023-02-01T10:30:19;5.60;1.00
4431;DHT22;2228;48.140;11.488;2023-02-01T10:32:48;5.50;1.00
4431;DHT22;2228;48.140;11.488;2023-02-01T10:35:21;5.40;1.00
4431;DHT22;2228;48.140;11.488;2023-02-01T10:37:48;5.40;1.00
4431;DHT22;2228;48.140;11.488;2023-02-01T10:40:21;5.50;1.00
4431;DHT22;2228;48.140;11.488;2023-02-01T10:42:49;5.40;1.00
4431;DHT22;2228;48.140;11.488;2023-02-01T10:45:20;5.50;1.00
4431;DHT22;2228;48.140;11.488;2023-02-01T10:47:50;5.50;1.00
4431;DHT22;2228;48.140;11.488;2023-02-01T10:50:29;5.50;1.00
4431;DHT22;2228;48.140;11.488;2023-02-01T10:53:02;5.50;1.00
4431;DHT22;2228;48.140;11.488;2023-02-01T10:55:36;5.50;1.00
4431;DHT22;2228;48.140;11.488;2023-02-01T10:58:06;5.40;1.00
4431;DHT22;2228;48.140;11.488;2023-02-01T11:00:43;5.40;1.00
4431;DHT22;2228;48.140;11.488;2023-02-01T11:03:34;5.30;1.00
4431;DHT22;2228;48.140;11.488;2023-02-01T11:06:10;5.40;1.00
4431;DHT22;2228;48.140;11.488;2023-02-01T11:08:49;5.50;1.00
4431;DHT22;2228;48.140;11.488;2023-02-01T11:11:17;5.50;1.00
4431;DHT22;2228;48.140;11.488;2023-02-01T11:13:51;5.60;1.00
4431;DHT22;2228;48.140;11.488;2023-02-01T11:16:19;5.60;1.00
4431;DHT22;2228;48.140;11.488;2023-02-01T11:18:53;5.70;1.00
4431;DHT22;2228;48.140;11.488;2023-02-01T11:21:22;5.70;1.00
4431;DHT22;2228;48.140;11.488;2023-02-01T11:23:49;5.70;1.00
4431;DHT22;2228;48.140;11.488;2023-02-01T11:26:21;5.70;1.00
4431;DHT22;2228;48.140;11.488;2023-02-01T11:28:53;5.70;1.00
4431;DHT22;2228;48.140;11.488;2023-02-01T11:31:22;5.50;1.00
4431;DHT22;2228;48.140;11.488;2023-02-01T11:33:52;5.40;1.00
4431;DHT22;2228;48.140;11.488;2023-02-01T11:36:24;5.40;1.00
4431;DHT22;2228;48.140;11.488;2023-02-01T11:38:54;5.40;1.00
4431;DHT22;2228;48.140;11.488;2023-02-01T11:41:33;5.30;1.00
4431;DHT22;2228;48.140;11.488;2023-02-01T11:44:02;5.40;1.00
4431;DHT22;2228;48.140;11.488;2023-02-01T11:46:42;5.30;1.00
4431;DHT22;2228;48.140;11.488;2023-02-01T11:49:21;5.30;1.00
4431;DHT22;2228;48.140;11.488;2023-02-01T11:51:59;5.30;1.00
4431;DHT22;2228;48.140;11.488;2023-02-01T11:54:43;5.20;1.00
4431;DHT22;2228;48.140;11.488;2023-02-01T11:57:26;5.30;1.00
4431;DHT22;2228;48.140;11.488;2023-02-01T12:00:06;5.30;1.00
4431;DHT22;2228;48.140;11.488;2023-02-01T12:02:54;5.20;1.00
4431;DHT22;2228;48.140;11.488;2023-02-01T12:05:31;5.20;1.00
4431;DHT22;2228;48.140;11.488;2023-02-01T12:08:16;5.20;1.00
4431;DHT22;2228;48.140;11.488;2023-02-01T12:10:55;5.20;1.00
4431;DHT22;2228;48.140;11.488;2023-02-01T12:13:37;5.20;1.00
4431;DHT22;2228;48.140;11.488;2023-02-01T12:16:18;5.30;1.00
4431;DHT22;2228;48.140;11.488;2023-02-01T12:18:59;5.20;1.00
4431;DHT22;2228;48.140;11.488;2023-02-01T12:21:38;5.10;1.00
4431;DHT22;2228;48.140;11.488;2023-02-01T12:27:42;5.10;1.00
4431;DHT22;2228;48.140;11.488;2023-02-01T12:30:28;4.90;1.00
4431;DHT22;2228;48.140;11.488;2023-02-01T12:33:07;4.90;1.00
4431;DHT22;2228;48.140;11.488;2023-02-01T12:35:48;4.90;1.00
4431;DHT22;2228;48.140;11.488;2023-02-01T12:38:28;4.80;1.00
4431;DHT22;2228;48.140;11.488;2023-02-01T12:41:12;4.80;1.00
4431;DHT22;2228;48.140;11.488;2023-02-01T12:43:47;4.80;1.00
4431;DHT22;2228;48.140;11.488;2023-02-01T12:46:19;4.80;1.00
4431;DHT22;2228;48.140;11.488;2023-02-01T12:48:55;4.80;1.00
4431;DHT22;2228;48.140;11.488;2023-02-01T12:51:27;4.90;1.00
4431;DHT22;2228;48.140;11.488;2023-02-01T12:53:59;4.90;1.00
4431;DHT22;2228;48.140;11.488;2023-02-01T12:56:40;4.90;1.00
4431;DHT22;2228;48.140;11.488;2023-02-01T12:59:18;5.00;1.00
4431;DHT22;2228;48.140;11.488;2023-02-01T13:01:49;5.20;1.00
4431;DHT22;2228;48.140;11.488;2023-02-01T13:04:26;5.10;1.00
4431;DHT22;2228;48.140;11.488;2023-02-01T13:07:01;5.20;1.00
4431;DHT22;2228;48.140;11.488;2023-02-01T13:09:36;5.30;1.00
4431;DHT22;2228;48.140;11.488;2023-02-01T13:12:09;5.20;1.00
4431;DHT22;2228;48.140;11.488;2023-02-01T13:14:43;5.20;1.00
4431;DHT22;2228;48.140;11.488;2023-02-01T13:17:15;5.20;1.00
4431;DHT22;2228;48.140;11.488;2023-02-01T13:19:47;5.20;1.00
4431;DHT22;2228;48.140;11.488;2023-02-01T13:22:20;5.20;1.00
4431;DHT22;2228;48.140;11.488;2023-02-01T13:24:50;5.30;1.00
4431;DHT22;2228;48.140;11.488;2023-02-01T13:27:19;5.30;1.00
4431;DHT22;2228;48.140;11.488;2023-02-01T13:29:53;5.20;1.00
4431;DHT22;2228;48.140;11.488;2023-02-01T13:38:42;5.30;1.00
4431;DHT22;2228;48.140;11.488;2023-02-01T13:41:24;5.20;1.00
4431;DHT22;2228;48.140;11.488;2023-02-01T13:43:55;5.30;1.00
4431;DHT22;2228;48.140;11.488;2023-02-01T13:46:25;5.30;1.00
4431;DHT22;2228;48.140;11.488;2023-02-01T13:48:55;5.30;1.00
4431;DHT22;2228;48.140;11.488;2023-02-01T13:51:37;5.30;1.00
4431;DHT22;2228;48.140;11.488;2023-02-01T13:54:07;5.30;1.00
4431;DHT22;2228;48.140;11.488;2023-02-01T13:56:49;5.30;1.00
4431;DHT22;2228;48.140;11.488;2023-02-01T13:59:50;5.30;1.00
4431;DHT22;2228;48.140;11.488;2023-02-01T14:02:46;5.20;1.00
4431;DHT22;2228;48.140;11.488;2023-02-01T14:08:22;5.20;1.00
4431;DHT22;2228;48.140;11.488;2023-02-01T14:10:52;5.10;1.00
4431;DHT22;2228;48.140;11.488;2023-02-01T14:13:28;5.00;1.00
4431;DHT22;2228;48.140;11.488;2023-02-01T14:16:10;5.00;1.00
4431;DHT22;2228;48.140;11.488;2023-02-01T14:18:59;5.00;1.00
4431;DHT22;2228;48.140;11.488;2023-02-01T14:21:29;5.10;1.00
4431;DHT22;2228;48.140;11.488;2023-02-01T14:24:00;5.00;1.00
4431;DHT22;2228;48.140;11.488;2023-02-01T14:26:44;5.10;1.00
4431;DHT22;2228;48.140;11.488;2023-02-01T14:29:30;5.10;1.00
4431;DHT22;2228;48.140;11.488;2023-02-01T14:32:05;5.10;1.00
4431;DHT22;2228;48.140;11.488;2023-02-01T14:34:40;5.10;1.00
4431;DHT22;2228;48.140;11.488;2023-02-01T14:37:25;5.00;1.00
4431;DHT22;2228;48.140;11.488;2023-02-01T14:39:56;5.00;1.00
4431;DHT22;2228;48.140;11.488;2023-02-01T14:42:29;5.00;1.00
4431;DHT22;2228;48.140;11.488;2023-02-01T14:51:09;5.00;1.00
4431;DHT22;2228;48.140;11.488;2023-02-01T14:53:38;5.00;1.00
4431;DHT22;2228;48.140;11.488;2023-02-01T14:56:14;5.00;1.00
4431;DHT22;2228;48.140;11.488;2023-02-01T14:58:44;5.10;1.00
4431;DHT22;2228;48.140;11.488;2023-02-01T15:01:20;5.20;1.00
4431;DHT22;2228;48.140;11.488;2023-02-01T15:03:52;5.20;1.00
4431;DHT22;2228;48.140;11.488;2023-02-01T15:06:35;5.10;1.00
4431;DHT22;2228;48.140;11.488;2023-02-01T15:09:08;5.00;1.00
4431;DHT22;2228;48.140;11.488;2023-02-01T15:11:55;5.00;1.00
4431;DHT22;2228;48.140;11.488;2023-02-01T15:14:22;5.00;1.00
4431;DHT22;2228;48.140;11.488;2023-02-01T15:16:49;5.00;1.00
4431;DHT22;2228;48.140;11.488;2023-02-01T15:19:21;5.00;1.00
4431;DHT22;2228;48.140;11.488;2023-02-01T15:21:50;5.00;1.00
4431;DHT22;2228;48.140;11.488;2023-02-01T15:24:21;4.90;1.00
4431;DHT22;2228;48.140;11.488;2023-02-01T15:26:49;4.90;1.00
4431;DHT22;2228;48.140;11.488;2023-02-01T15:29:26;4.90;1.00
4431;DHT22;2228;48.140;11.488;2023-02-01T15:31:58;4.80;1.00
4431;DHT22;2228;48.140;11.488;2023-02-01T15:34:44;4.70;1.00
4431;DHT22;2228;48.140;11.488;2023-02-01T15:37:14;4.70;1.00
4431;DHT22;2228;48.140;11.488;2023-02-01T15:40:03;4.50;1.00
4431;DHT22;2228;48.140;11.488;2023-02-01T15:42:31;4.50;1.00
4431;DHT22;2228;48.140;11.488;2023-02-01T15:44:58;4.50;1.00
4431;DHT22;2228;48.140;11.488;2023-02-01T15:47:29;4.40;1.00
4431;DHT22;2228;48.140;11.488;2023-02-01T15:49:59;4.30;1.00
4431;DHT22;2228;48.140;11.488;2023-02-01T15:52:34;4.30;1.00
4431;DHT22;2228;48.140;11.488;2023-02-01T15:55:04;4.40;1.00
4431;DHT22;2228;48.140;11.488;2023-02-01T15:57:33;4.50;1.00
4431;DHT22;2228;48.140;11.488;2023-02-01T16:00:03;4.40;1.00
4431;DHT22;2228;48.140;11.488;2023-02-01T16:02:35;4.30;1.00
4431;DHT22;2228;48.140;11.488;2023-02-01T16:05:05;4.30;1.00
4431;DHT22;2228;48.140;11.488;2023-02-01T16:07:34;4.30;1.00
4431;DHT22;2228;48.140;11.488;2023-02-01T16:10:20;4.20;1.00
4431;DHT22;2228;48.140;11.488;2023-02-01T16:12:49;4.30;1.00
4431;DHT22;2228;48.140;11.488;2023-02-01T16:15:18;4.20;1.00
4431;DHT22;2228;48.140;11.488;2023-02-01T16:17:45;4.30;1.00
4431;DHT22;2228;48.140;11.488;2023-02-01T16:20:12;4.20;1.00
4431;DHT22;2228;48.140;11.488;2023-02-01T16:22:41;4.20;1.00
4431;DHT22;2228;48.140;11.488;2023-02-01T20:56:59;5.00;1.00
4431;DHT22;2228;48.140;11.488;2023-02-01T20:59:27;5.10;1.00
4431;DHT22;2228;48.140;11.488;2023-02-01T21:01:54;5.30;1.00
4431;DHT22;2228;48.140;11.488;2023-02-01T21:04:22;4.80;1.00
4431;DHT22;2228;48.140;11.488;2023-02-01T21:06:52;5.10;1.00
4431;DHT22;2228;48.140;11.488;2023-02-01T21:09:20;4.80;1.00
4431;DHT22;2228;48.140;11.488;2023-02-01T21:11:47;4.90;1.00
4431;DHT22;2228;48.140;11.488;2023-02-01T21:14:16;5.00;1.00
4431;DHT22;2228;48.140;11.488;2023-02-01T21:16:47;4.90;1.00
4431;DHT22;2228;48.140;11.488;2023-02-01T21:19:15;4.90;1.00
4431;DHT22;2228;48.140;11.488;2023-02-01T21:21:44;4.80;1.00
4431;DHT22;2228;48.140;11.488;2023-02-01T21:24:12;4.80;1.00
4431;DHT22;2228;48.140;11.488;2023-02-01T21:26:39;5.20;1.00
4431;DHT22;2228;48.140;11.488;2023-02-01T21:29:08;4.90;1.00
4431;DHT22;2228;48.140;11.488;2023-02-01T21:31:40;5.00;1.00
4431;DHT22;2228;48.140;11.488;2023-02-01T21:34:09;4.70;1.00
4431;DHT22;2228;48.140;11.488;2023-02-01T21:36:39;4.60;1.00
4431;DHT22;2228;48.140;11.488;2023-02-01T21:39:07;4.50;1.00
4431;DHT22;2228;48.140;11.488;2023-02-01T21:41:37;4.20;1.00
4431;DHT22;2228;48.140;11.488;2023-02-01T21:44:22;4.40;1.00
4431;DHT22;2228;48.140;11.488;2023-02-01T21:46:51;4.50;1.00
4431;DHT22;2228;48.140;11.488;2023-02-01T21:49:20;4.70;1.00
4431;DHT22;2228;48.140;11.488;2023-02-01T21:51:52;4.50;1.00
4431;DHT22;2228;48.140;11.488;2023-02-01T21:54:22;4.40;1.00